sensor_id;sensor_type;location;lat;lon;timestamp;P1;durP1;ratioP1;P2;durP2;ratioP2
25988;SDS011;13778;48.236;9.894;2023-08-06T00:04:22;4.10;;;3.70;;
25988;SDS011;13778;48.236;9.894;2023-08-06T00:07:13;3.42;;;3.13;;
25988;SDS011;13778;48.236;9.894;2023-08-06T00:10:04;6.05;;;4.28;;
25988;SDS011;13778;48.236;9.894;2023-08-06T00:12:54;6.10;;;3.63;;
25988;SDS011;13778;48.236;9.894;2023-08-06T00:15:46;4.57;;;3.90;;
25988;SDS011;13778;48.236;9.894;2023-08-06T00:18:36;5.10;;;3.78;;
25988;SDS011;13778;48.236;9.894;2023-08-06T00:21:27;5.90;;;3.53;;
25988;SDS011;13778;48.236;9.894;2023-08-06T00:24:17;5.88;;;3.45;;
25988;SDS011;13778;48.236;9.894;2023-08-06T00:27:08;4.47;;;3.55;;
25988;SDS011;13778;48.236;9.894;2023-08-06T00:29:58;5.57;;;3.13;;
25988;SDS011;13778;48.236;9.894;2023-08-06T00:32:50;5.22;;;3.85;;
25988;SDS011;13778;48.236;9.894;2023-08-06T00:38:31;4.40;;;3.15;;
25988;SDS011;13778;48.236;9.894;2023-08-06T00:41:21;3.47;;;3.17;;
25988;SDS011;13778;48.236;9.894;2023-08-06T00:44:12;5.78;;;3.78;;
25988;SDS011;13778;48.236;9.894;2023-08-06T00:47:03;5.90;;;3.80;;
25988;SDS011;13778;48.236;9.894;2023-08-06T00:49:54;5.10;;;3.28;;
25988;SDS011;13778;48.236;9.894;2023-08-06T00:55:35;4.05;;;3.42;;
25988;SDS011;13778;48.236;9.894;2023-08-06T00:58:25;7.97;;;3.67;;
25988;SDS011;13778;48.236;9.894;2023-08-06T01:01:16;6.75;;;3.88;;
25988;SDS011;13778;48.236;9.894;2023-08-06T01:04:06;4.38;;;3.30;;
25988;SDS011;13778;48.236;9.894;2023-08-06T01:07:01;3.97;;;3.58;;
25988;SDS011;13778;48.236;9.894;2023-08-06T01:09:55;6.13;;;3.35;;
25988;SDS011;13778;48.236;9.894;2023-08-06T01:12:48;9.05;;;3.97;;
25988;SDS011;13778;48.236;9.894;2023-08-06T01:15:41;4.90;;;3.90;;
25988;SDS011;13778;48.236;9.894;2023-08-06T01:18:31;6.00;;;4.00;;
25988;SDS011;13778;48.236;9.894;2023-08-06T01:21:23;6.60;;;4.10;;
25988;SDS011;13778;48.236;9.894;2023-08-06T01:24:13;4.55;;;3.97;;
25988;SDS011;13778;48.236;9.894;2023-08-06T01:27:06;4.30;;;3.90;;
25988;SDS011;13778;48.236;9.894;2023-08-06T01:30:00;5.78;;;4.60;;
25988;SDS011;13778;48.236;9.894;2023-08-06T01:32:53;5.25;;;4.25;;
25988;SDS011;13778;48.236;9.894;2023-08-06T01:35:44;4.78;;;4.15;;
25988;SDS011;13778;48.236;9.894;2023-08-06T01:38:36;5.68;;;4.55;;
25988;SDS011;13778;48.236;9.894;2023-08-06T01:44:16;7.72;;;4.90;;
25988;SDS011;13778;48.236;9.894;2023-08-06T01:47:07;10.32;;;4.90;;
25988;SDS011;13778;48.236;9.894;2023-08-06T01:49:57;5.47;;;4.97;;
25988;SDS011;13778;48.236;9.894;2023-08-06T01:52:48;9.45;;;5.43;;
25988;SDS011;13778;48.236;9.894;2023-08-06T01:55:40;5.25;;;4.75;;
25988;SDS011;13778;48.236;9.894;2023-08-06T01:58:30;5.55;;;4.90;;
25988;SDS011;13778;48.236;9.894;2023-08-06T02:01:21;4.78;;;4.20;;
25988;SDS011;13778;48.236;9.894;2023-08-06T02:04:11;5.45;;;4.50;;
25988;SDS011;13778;48.236;9.894;2023-08-06T02:07:02;5.65;;;4.53;;
25988;SDS011;13778;48.236;9.894;2023-08-06T02:09:52;5.00;;;4.50;;
25988;SDS011;13778;48.236;9.894;2023-08-06T02:12:44;4.80;;;4.40;;
25988;SDS011;13778;48.236;9.894;2023-08-06T02:15:34;4.55;;;4.10;;
25988;SDS011;13778;48.236;9.894;2023-08-06T02:18:25;9.27;;;3.88;;
25988;SDS011;13778;48.236;9.894;2023-08-06T02:21:15;7.47;;;4.82;;
25988;SDS011;13778;48.236;9.894;2023-08-06T02:24:06;5.53;;;4.00;;
25988;SDS011;13778;48.236;9.894;2023-08-06T02:26:56;6.28;;;4.20;;
25988;SDS011;13778;48.236;9.894;2023-08-06T02:29:48;4.78;;;3.97;;
25988;SDS011;13778;48.236;9.894;2023-08-06T02:32:38;5.43;;;4.65;;
25988;SDS011;13778;48.236;9.894;2023-08-06T02:35:29;5.78;;;4.10;;
25988;SDS011;13778;48.236;9.894;2023-08-06T02:38:20;4.30;;;3.90;;
25988;SDS011;13778;48.236;9.894;2023-08-06T02:41:10;4.72;;;4.22;;
25988;SDS011;13778;48.236;9.894;2023-08-06T02:44:00;4.60;;;4.10;;
25988;SDS011;13778;48.236;9.894;2023-08-06T02:46:53;8.03;;;4.30;;
25988;SDS011;13778;48.236;9.894;2023-08-06T02:49:43;5.63;;;4.20;;
25988;SDS011;13778;48.236;9.894;2023-08-06T02:52:34;4.15;;;3.70;;
25988;SDS011;13778;48.236;9.894;2023-08-06T02:55:24;5.45;;;4.28;;
25988;SDS011;13778;48.236;9.894;2023-08-06T02:58:15;4.70;;;4.22;;
25988;SDS011;13778;48.236;9.894;2023-08-06T03:01:06;8.50;;;4.32;;
25988;SDS011;13778;48.236;9.894;2023-08-06T03:03:58;5.68;;;4.00;;
25988;SDS011;13778;48.236;9.894;2023-08-06T03:06:49;7.35;;;4.13;;
25988;SDS011;13778;48.236;9.894;2023-08-06T03:09:39;4.30;;;3.63;;
25988;SDS011;13778;48.236;9.894;2023-08-06T03:12:29;4.75;;;3.50;;
25988;SDS011;13778;48.236;9.894;2023-08-06T03:15:20;6.45;;;4.25;;
25988;SDS011;13778;48.236;9.894;2023-08-06T03:18:10;8.98;;;5.28;;
25988;SDS011;13778;48.236;9.894;2023-08-06T03:21:02;8.27;;;4.80;;
25988;SDS011;13778;48.236;9.894;2023-08-06T03:26:43;4.55;;;3.47;;
25988;SDS011;13778;48.236;9.894;2023-08-06T03:29:33;4.22;;;3.38;;
25988;SDS011;13778;48.236;9.894;2023-08-06T03:32:24;4.25;;;3.65;;
25988;SDS011;13778;48.236;9.894;2023-08-06T03:35:14;3.33;;;3.00;;
25988;SDS011;13778;48.236;9.894;2023-08-06T03:38:06;4.57;;;3.38;;
25988;SDS011;13778;48.236;9.894;2023-08-06T03:40:56;3.42;;;2.83;;
25988;SDS011;13778;48.236;9.894;2023-08-06T03:43:47;6.80;;;3.30;;
25988;SDS011;13778;48.236;9.894;2023-08-06T03:46:37;4.68;;;3.22;;
25988;SDS011;13778;48.236;9.894;2023-08-06T03:49:28;6.40;;;3.00;;
25988;SDS011;13778;48.236;9.894;2023-08-06T03:52:18;5.22;;;2.97;;
25988;SDS011;13778;48.236;9.894;2023-08-06T03:55:10;3.40;;;3.00;;
25988;SDS011;13778;48.236;9.894;2023-08-06T03:58:00;6.65;;;3.47;;
25988;SDS011;13778;48.236;9.894;2023-08-06T04:00:57;3.92;;;3.15;;
25988;SDS011;13778;48.236;9.894;2023-08-06T04:03:47;6.15;;;3.22;;
25988;SDS011;13778;48.236;9.894;2023-08-06T04:06:37;3.17;;;2.85;;
25988;SDS011;13778;48.236;9.894;2023-08-06T04:09:28;7.15;;;3.10;;
25988;SDS011;13778;48.236;9.894;2023-08-06T04:12:20;4.30;;;3.42;;
25988;SDS011;13778;48.236;9.894;2023-08-06T04:18:01;5.03;;;3.70;;
25988;SDS011;13778;48.236;9.894;2023-08-06T04:20:51;5.43;;;3.20;;
25988;SDS011;13778;48.236;9.894;2023-08-06T04:23:44;4.53;;;3.55;;
25988;SDS011;13778;48.236;9.894;2023-08-06T04:26:34;5.97;;;3.45;;
25988;SDS011;13778;48.236;9.894;2023-08-06T04:29:26;3.97;;;3.35;;
25988;SDS011;13778;48.236;9.894;2023-08-06T04:32:16;4.25;;;3.50;;
25988;SDS011;13778;48.236;9.894;2023-08-06T04:35:08;6.25;;;3.58;;
25988;SDS011;13778;48.236;9.894;2023-08-06T04:37:58;6.03;;;3.97;;
25988;SDS011;13778;48.236;9.894;2023-08-06T04:40:49;5.57;;;3.95;;
25988;SDS011;13778;48.236;9.894;2023-08-06T04:43:39;5.60;;;4.53;;
25988;SDS011;13778;48.236;9.894;2023-08-06T04:46:31;5.35;;;4.35;;
25988;SDS011;13778;48.236;9.894;2023-08-06T04:49:21;5.15;;;4.18;;
25988;SDS011;13778;48.236;9.894;2023-08-06T04:52:12;4.22;;;3.80;;
25988;SDS011;13778;48.236;9.894;2023-08-06T04:55:03;5.45;;;4.63;;
25988;SDS011;13778;48.236;9.894;2023-08-06T04:57:55;9.18;;;4.10;;
25988;SDS011;13778;48.236;9.894;2023-08-06T05:00:45;6.03;;;4.35;;
25988;SDS011;13778;48.236;9.894;2023-08-06T05:03:37;5.22;;;4.00;;
25988;SDS011;13778;48.236;9.894;2023-08-06T05:06:28;4.90;;;3.53;;
25988;SDS011;13778;48.236;9.894;2023-08-06T05:09:18;6.13;;;4.00;;
25988;SDS011;13778;48.236;9.894;2023-08-06T05:12:09;4.40;;;3.78;;
25988;SDS011;13778;48.236;9.894;2023-08-06T05:14:59;3.88;;;3.45;;
25988;SDS011;13778;48.236;9.894;2023-08-06T05:17:50;5.60;;;3.95;;
25988;SDS011;13778;48.236;9.894;2023-08-06T05:20:42;4.18;;;3.58;;
25988;SDS011;13778;48.236;9.894;2023-08-06T05:23:32;8.00;;;3.13;;
25988;SDS011;13778;48.236;9.894;2023-08-06T05:26:22;5.95;;;3.25;;
25988;SDS011;13778;48.236;9.894;2023-08-06T05:29:13;5.78;;;3.35;;
25988;SDS011;13778;48.236;9.894;2023-08-06T05:34:46;7.72;;;3.47;;
25988;SDS011;13778;48.236;9.894;2023-08-06T05:37:38;4.57;;;2.80;;
25988;SDS011;13778;48.236;9.894;2023-08-06T05:40:28;5.28;;;2.80;;
25988;SDS011;13778;48.236;9.894;2023-08-06T05:43:18;2.92;;;2.15;;
25988;SDS011;13778;48.236;9.894;2023-08-06T05:46:09;5.60;;;2.90;;
25988;SDS011;13778;48.236;9.894;2023-08-06T05:48:59;3.33;;;2.22;;
25988;SDS011;13778;48.236;9.894;2023-08-06T05:51:50;5.68;;;3.00;;
25988;SDS011;13778;48.236;9.894;2023-08-06T05:57:33;4.10;;;2.50;;
25988;SDS011;13778;48.236;9.894;2023-08-06T06:03:14;2.83;;;1.95;;
25988;SDS011;13778;48.236;9.894;2023-08-06T06:06:04;3.45;;;2.13;;
25988;SDS011;13778;48.236;9.894;2023-08-06T06:08:55;5.30;;;2.20;;
25988;SDS011;13778;48.236;9.894;2023-08-06T06:11:46;3.25;;;1.95;;
25988;SDS011;13778;48.236;9.894;2023-08-06T06:14:38;2.83;;;2.30;;
25988;SDS011;13778;48.236;9.894;2023-08-06T06:17:28;3.75;;;1.85;;
25988;SDS011;13778;48.236;9.894;2023-08-06T06:20:19;2.35;;;1.70;;
25988;SDS011;13778;48.236;9.894;2023-08-06T06:23:09;4.47;;;1.80;;
25988;SDS011;13778;48.236;9.894;2023-08-06T06:26:00;2.72;;;1.50;;
25988;SDS011;13778;48.236;9.894;2023-08-06T06:28:50;2.50;;;1.58;;
25988;SDS011;13778;48.236;9.894;2023-08-06T06:31:42;3.35;;;1.92;;
25988;SDS011;13778;48.236;9.894;2023-08-06T06:34:33;1.90;;;1.58;;
25988;SDS011;13778;48.236;9.894;2023-08-06T06:37:23;3.35;;;1.27;;
25988;SDS011;13778;48.236;9.894;2023-08-06T06:40:14;2.35;;;1.45;;
25988;SDS011;13778;48.236;9.894;2023-08-06T06:43:04;2.53;;;1.27;;
25988;SDS011;13778;48.236;9.894;2023-08-06T06:45:55;4.50;;;2.53;;
25988;SDS011;13778;48.236;9.894;2023-08-06T06:48:47;2.25;;;1.63;;
25988;SDS011;13778;48.236;9.894;2023-08-06T06:51:38;2.72;;;2.45;;
25988;SDS011;13778;48.236;9.894;2023-08-06T06:54:28;3.25;;;2.70;;
25988;SDS011;13778;48.236;9.894;2023-08-06T06:57:18;7.35;;;5.45;;
25988;SDS011;13778;48.236;9.894;2023-08-06T07:00:09;2.50;;;2.28;;
25988;SDS011;13778;48.236;9.894;2023-08-06T07:03:00;8.40;;;6.50;;
25988;SDS011;13778;48.236;9.894;2023-08-06T07:05:56;6.05;;;4.05;;
25988;SDS011;13778;48.236;9.894;2023-08-06T07:08:46;6.13;;;3.88;;
25988;SDS011;13778;48.236;9.894;2023-08-06T07:11:37;1.73;;;1.63;;
25988;SDS011;13778;48.236;9.894;2023-08-06T07:14:28;2.78;;;1.40;;
25988;SDS011;13778;48.236;9.894;2023-08-06T07:17:18;2.40;;;2.03;;
25988;SDS011;13778;48.236;9.894;2023-08-06T07:20:09;1.30;;;1.20;;
25988;SDS011;13778;48.236;9.894;2023-08-06T07:23:01;1.83;;;1.55;;
25988;SDS011;13778;48.236;9.894;2023-08-06T07:28:42;2.42;;;1.48;;
25988;SDS011;13778;48.236;9.894;2023-08-06T07:31:33;3.83;;;1.20;;
25988;SDS011;13778;48.236;9.894;2023-08-06T07:34:24;2.45;;;1.10;;
25988;SDS011;13778;48.236;9.894;2023-08-06T07:37:14;2.58;;;1.02;;
25988;SDS011;13778;48.236;9.894;2023-08-06T07:40:07;1.75;;;0.90;;
25988;SDS011;13778;48.236;9.894;2023-08-06T07:42:57;1.75;;;0.90;;
25988;SDS011;13778;48.236;9.894;2023-08-06T07:45:48;1.35;;;0.77;;
25988;SDS011;13778;48.236;9.894;2023-08-06T07:48:38;1.83;;;0.80;;
25988;SDS011;13778;48.236;9.894;2023-08-06T07:51:29;1.00;;;0.60;;
25988;SDS011;13778;48.236;9.894;2023-08-06T07:54:19;2.15;;;0.60;;
25988;SDS011;13778;48.236;9.894;2023-08-06T07:57:11;2.58;;;0.77;;
25988;SDS011;13778;48.236;9.894;2023-08-06T08:00:03;2.03;;;0.65;;
25988;SDS011;13778;48.236;9.894;2023-08-06T08:02:54;5.88;;;0.95;;
25988;SDS011;13778;48.236;9.894;2023-08-06T08:05:44;0.80;;;0.60;;
25988;SDS011;13778;48.236;9.894;2023-08-06T08:08:35;1.20;;;0.43;;
25988;SDS011;13778;48.236;9.894;2023-08-06T08:11:27;2.00;;;0.68;;
25988;SDS011;13778;48.236;9.894;2023-08-06T08:14:19;4.00;;;0.35;;
25988;SDS011;13778;48.236;9.894;2023-08-06T08:20:00;1.23;;;0.65;;
25988;SDS011;13778;48.236;9.894;2023-08-06T08:22:50;1.00;;;0.77;;
25988;SDS011;13778;48.236;9.894;2023-08-06T08:25:41;0.75;;;0.60;;
25988;SDS011;13778;48.236;9.894;2023-08-06T08:28:31;1.10;;;0.80;;
25988;SDS011;13778;48.236;9.894;2023-08-06T08:31:23;1.67;;;1.10;;
25988;SDS011;13778;48.236;9.894;2023-08-06T08:34:13;2.30;;;0.50;;
25988;SDS011;13778;48.236;9.894;2023-08-06T08:37:04;0.55;;;0.50;;
25988;SDS011;13778;48.236;9.894;2023-08-06T08:39:55;0.80;;;0.60;;
25988;SDS011;13778;48.236;9.894;2023-08-06T08:42:45;0.65;;;0.30;;
25988;SDS011;13778;48.236;9.894;2023-08-06T08:45:36;1.67;;;0.70;;
25988;SDS011;13778;48.236;9.894;2023-08-06T08:48:30;1.83;;;0.63;;
25988;SDS011;13778;48.236;9.894;2023-08-06T08:51:21;2.55;;;0.77;;
25988;SDS011;13778;48.236;9.894;2023-08-06T08:54:11;0.47;;;0.40;;
25988;SDS011;13778;48.236;9.894;2023-08-06T08:59:53;1.65;;;0.80;;
25988;SDS011;13778;48.236;9.894;2023-08-06T09:02:44;0.40;;;0.40;;
25988;SDS011;13778;48.236;9.894;2023-08-06T09:05:36;3.83;;;1.02;;
25988;SDS011;13778;48.236;9.894;2023-08-06T09:08:27;0.70;;;0.55;;
25988;SDS011;13778;48.236;9.894;2023-08-06T09:11:20;1.90;;;0.43;;
25988;SDS011;13778;48.236;9.894;2023-08-06T09:14:10;3.50;;;0.57;;
25988;SDS011;13778;48.236;9.894;2023-08-06T09:17:01;1.65;;;0.40;;
25988;SDS011;13778;48.236;9.894;2023-08-06T09:19:53;1.08;;;0.50;;
25988;SDS011;13778;48.236;9.894;2023-08-06T09:22:45;2.58;;;0.85;;
25988;SDS011;13778;48.236;9.894;2023-08-06T09:25:38;0.43;;;0.40;;
25988;SDS011;13778;48.236;9.894;2023-08-06T09:28:36;2.50;;;0.82;;
25988;SDS011;13778;48.236;9.894;2023-08-06T09:31:31;2.63;;;0.50;;
25988;SDS011;13778;48.236;9.894;2023-08-06T09:34:22;1.42;;;0.50;;
25988;SDS011;13778;48.236;9.894;2023-08-06T09:37:13;1.85;;;0.68;;
25988;SDS011;13778;48.236;9.894;2023-08-06T09:40:20;0.68;;;0.38;;
25988;SDS011;13778;48.236;9.894;2023-08-06T09:43:14;0.95;;;0.40;;
25988;SDS011;13778;48.236;9.894;2023-08-06T09:46:10;0.63;;;0.30;;
25988;SDS011;13778;48.236;9.894;2023-08-06T09:49:01;2.25;;;0.60;;
25988;SDS011;13778;48.236;9.894;2023-08-06T09:51:52;1.83;;;0.32;;
25988;SDS011;13778;48.236;9.894;2023-08-06T09:54:44;1.40;;;0.75;;
25988;SDS011;13778;48.236;9.894;2023-08-06T09:57:36;1.08;;;0.77;;
25988;SDS011;13778;48.236;9.894;2023-08-06T10:00:27;1.67;;;1.13;;
25988;SDS011;13778;48.236;9.894;2023-08-06T10:03:18;0.97;;;0.90;;
25988;SDS011;13778;48.236;9.894;2023-08-06T10:06:08;0.60;;;0.60;;
25988;SDS011;13778;48.236;9.894;2023-08-06T10:08:59;0.68;;;0.60;;
25988;SDS011;13778;48.236;9.894;2023-08-06T10:11:50;0.52;;;0.40;;
25988;SDS011;13778;48.236;9.894;2023-08-06T10:14:43;1.65;;;0.65;;
25988;SDS011;13778;48.236;9.894;2023-08-06T10:17:34;0.30;;;0.30;;
25988;SDS011;13778;48.236;9.894;2023-08-06T10:20:24;0.68;;;0.50;;
25988;SDS011;13778;48.236;9.894;2023-08-06T10:23:14;0.20;;;0.20;;
25988;SDS011;13778;48.236;9.894;2023-08-06T10:26:06;0.73;;;0.25;;
25988;SDS011;13778;48.236;9.894;2023-08-06T10:28:56;1.23;;;0.20;;
25988;SDS011;13778;48.236;9.894;2023-08-06T10:31:55;0.50;;;0.50;;
25988;SDS011;13778;48.236;9.894;2023-08-06T10:34:56;0.17;;;0.17;;
25988;SDS011;13778;48.236;9.894;2023-08-06T10:37:46;0.30;;;0.30;;
25988;SDS011;13778;48.236;9.894;2023-08-06T10:40:39;0.40;;;0.25;;
25988;SDS011;13778;48.236;9.894;2023-08-06T10:43:30;1.65;;;0.30;;
25988;SDS011;13778;48.236;9.894;2023-08-06T10:46:22;1.98;;;0.30;;
25988;SDS011;13778;48.236;9.894;2023-08-06T10:49:15;0.20;;;0.20;;
25988;SDS011;13778;48.236;9.894;2023-08-06T10:52:07;0.43;;;0.20;;
25988;SDS011;13778;48.236;9.894;2023-08-06T10:54:58;0.30;;;0.30;;
25988;SDS011;13778;48.236;9.894;2023-08-06T10:57:48;0.50;;;0.30;;
25988;SDS011;13778;48.236;9.894;2023-08-06T11:00:39;0.30;;;0.20;;
25988;SDS011;13778;48.236;9.894;2023-08-06T11:03:29;0.90;;;0.28;;
25988;SDS011;13778;48.236;9.894;2023-08-06T11:09:13;0.65;;;0.28;;
25988;SDS011;13778;48.236;9.894;2023-08-06T11:12:07;1.45;;;0.60;;
25988;SDS011;13778;48.236;9.894;2023-08-06T11:14:59;1.58;;;0.80;;
25988;SDS011;13778;48.236;9.894;2023-08-06T11:17:49;1.52;;;0.90;;
25988;SDS011;13778;48.236;9.894;2023-08-06T11:20:40;3.92;;;0.70;;
25988;SDS011;13778;48.236;9.894;2023-08-06T11:23:31;4.22;;;0.60;;
25988;SDS011;13778;48.236;9.894;2023-08-06T11:26:23;2.90;;;0.65;;
25988;SDS011;13778;48.236;9.894;2023-08-06T11:29:14;0.55;;;0.55;;
25988;SDS011;13778;48.236;9.894;2023-08-06T11:32:05;3.40;;;0.93;;
25988;SDS011;13778;48.236;9.894;2023-08-06T11:34:55;1.17;;;0.52;;
25988;SDS011;13778;48.236;9.894;2023-08-06T11:37:46;4.20;;;1.42;;
25988;SDS011;13778;48.236;9.894;2023-08-06T11:40:36;4.20;;;1.55;;
25988;SDS011;13778;48.236;9.894;2023-08-06T11:43:29;1.73;;;1.00;;
25988;SDS011;13778;48.236;9.894;2023-08-06T11:46:20;0.75;;;0.50;;
25988;SDS011;13778;48.236;9.894;2023-08-06T11:49:12;2.42;;;1.52;;
25988;SDS011;13778;48.236;9.894;2023-08-06T11:52:06;4.00;;;2.30;;
25988;SDS011;13778;48.236;9.894;2023-08-06T11:55:01;1.30;;;0.90;;
25988;SDS011;13778;48.236;9.894;2023-08-06T11:57:52;1.77;;;0.90;;
25988;SDS011;13778;48.236;9.894;2023-08-06T12:00:44;10.90;;;3.60;;
25988;SDS011;13778;48.236;9.894;2023-08-06T12:03:38;10.52;;;5.97;;
25988;SDS011;13778;48.236;9.894;2023-08-06T12:06:28;11.25;;;5.30;;
25988;SDS011;13778;48.236;9.894;2023-08-06T12:09:19;3.17;;;1.90;;
25988;SDS011;13778;48.236;9.894;2023-08-06T12:12:10;1.85;;;0.80;;
25988;SDS011;13778;48.236;9.894;2023-08-06T12:15:00;2.45;;;1.10;;
25988;SDS011;13778;48.236;9.894;2023-08-06T12:17:52;0.80;;;0.80;;
25988;SDS011;13778;48.236;9.894;2023-08-06T12:20:42;1.00;;;1.00;;
25988;SDS011;13778;48.236;9.894;2023-08-06T12:23:33;1.00;;;0.85;;
25988;SDS011;13778;48.236;9.894;2023-08-06T12:26:23;1.20;;;1.00;;
25988;SDS011;13778;48.236;9.894;2023-08-06T12:29:14;1.77;;;0.90;;
25988;SDS011;13778;48.236;9.894;2023-08-06T12:32:05;0.40;;;0.40;;
25988;SDS011;13778;48.236;9.894;2023-08-06T12:34:57;2.73;;;1.73;;
25988;SDS011;13778;48.236;9.894;2023-08-06T12:37:47;0.50;;;0.50;;
25988;SDS011;13778;48.236;9.894;2023-08-06T12:40:38;0.75;;;0.70;;
25988;SDS011;13778;48.236;9.894;2023-08-06T12:43:28;1.75;;;0.70;;
25988;SDS011;13778;48.236;9.894;2023-08-06T12:46:19;1.08;;;0.70;;
25988;SDS011;13778;48.236;9.894;2023-08-06T12:49:09;1.92;;;0.80;;
25988;SDS011;13778;48.236;9.894;2023-08-06T12:52:02;0.40;;;0.40;;
25988;SDS011;13778;48.236;9.894;2023-08-06T12:54:55;0.77;;;0.50;;
25988;SDS011;13778;48.236;9.894;2023-08-06T12:57:45;2.80;;;0.47;;
25988;SDS011;13778;48.236;9.894;2023-08-06T13:00:36;0.55;;;0.40;;
25988;SDS011;13778;48.236;9.894;2023-08-06T13:03:26;0.80;;;0.68;;
25988;SDS011;13778;48.236;9.894;2023-08-06T13:06:16;0.50;;;0.38;;
25988;SDS011;13778;48.236;9.894;2023-08-06T13:09:08;3.22;;;2.10;;
25988;SDS011;13778;48.236;9.894;2023-08-06T13:11:58;5.32;;;3.00;;
25988;SDS011;13778;48.236;9.894;2023-08-06T13:14:54;10.32;;;4.68;;
25988;SDS011;13778;48.236;9.894;2023-08-06T13:17:46;19.63;;;6.43;;
25988;SDS011;13778;48.236;9.894;2023-08-06T13:20:37;0.40;;;0.40;;
25988;SDS011;13778;48.236;9.894;2023-08-06T13:26:19;3.42;;;0.90;;
25988;SDS011;13778;48.236;9.894;2023-08-06T13:29:10;0.88;;;0.68;;
25988;SDS011;13778;48.236;9.894;2023-08-06T13:32:00;0.73;;;0.73;;
25988;SDS011;13778;48.236;9.894;2023-08-06T13:34:51;2.72;;;1.48;;
25988;SDS011;13778;48.236;9.894;2023-08-06T13:37:41;3.15;;;1.35;;
25988;SDS011;13778;48.236;9.894;2023-08-06T13:40:32;1.20;;;1.10;;
25988;SDS011;13778;48.236;9.894;2023-08-06T13:43:24;1.13;;;0.85;;
25988;SDS011;13778;48.236;9.894;2023-08-06T13:49:05;1.20;;;0.80;;
25988;SDS011;13778;48.236;9.894;2023-08-06T13:51:56;0.80;;;0.80;;
25988;SDS011;13778;48.236;9.894;2023-08-06T13:54:46;0.63;;;0.55;;
25988;SDS011;13778;48.236;9.894;2023-08-06T13:57:36;0.43;;;0.43;;
25988;SDS011;13778;48.236;9.894;2023-08-06T14:00:28;4.22;;;0.63;;
25988;SDS011;13778;48.236;9.894;2023-08-06T14:03:19;1.95;;;0.50;;
25988;SDS011;13778;48.236;9.894;2023-08-06T14:06:09;0.38;;;0.38;;
25988;SDS011;13778;48.236;9.894;2023-08-06T14:09:00;0.60;;;0.40;;
25988;SDS011;13778;48.236;9.894;2023-08-06T14:11:50;0.30;;;0.30;;
25988;SDS011;13778;48.236;9.894;2023-08-06T14:14:40;0.80;;;0.50;;
25988;SDS011;13778;48.236;9.894;2023-08-06T14:17:32;0.55;;;0.55;;
25988;SDS011;13778;48.236;9.894;2023-08-06T14:23:13;1.50;;;0.40;;
25988;SDS011;13778;48.236;9.894;2023-08-06T14:26:04;0.55;;;0.40;;
25988;SDS011;13778;48.236;9.894;2023-08-06T14:28:54;1.38;;;0.40;;
25988;SDS011;13778;48.236;9.894;2023-08-06T14:31:45;0.50;;;0.50;;
25988;SDS011;13778;48.236;9.894;2023-08-06T14:34:36;0.52;;;0.50;;
25988;SDS011;13778;48.236;9.894;2023-08-06T14:37:27;0.30;;;0.30;;
25988;SDS011;13778;48.236;9.894;2023-08-06T14:40:17;2.05;;;0.38;;
25988;SDS011;13778;48.236;9.894;2023-08-06T14:43:08;2.05;;;0.90;;
25988;SDS011;13778;48.236;9.894;2023-08-06T14:45:59;0.37;;;0.30;;
25988;SDS011;13778;48.236;9.894;2023-08-06T14:48:49;1.15;;;0.75;;
25988;SDS011;13778;48.236;9.894;2023-08-06T14:51:41;0.52;;;0.50;;
25988;SDS011;13778;48.236;9.894;2023-08-06T14:54:31;0.43;;;0.43;;
25988;SDS011;13778;48.236;9.894;2023-08-06T14:57:22;0.38;;;0.35;;
25988;SDS011;13778;48.236;9.894;2023-08-06T15:00:16;0.52;;;0.30;;
25988;SDS011;13778;48.236;9.894;2023-08-06T15:03:07;0.20;;;0.20;;
25988;SDS011;13778;48.236;9.894;2023-08-06T15:05:58;0.20;;;0.20;;
25988;SDS011;13778;48.236;9.894;2023-08-06T15:08:49;1.70;;;0.30;;
25988;SDS011;13778;48.236;9.894;2023-08-06T15:11:40;0.17;;;0.17;;
25988;SDS011;13778;48.236;9.894;2023-08-06T15:14:30;1.70;;;0.30;;
25988;SDS011;13778;48.236;9.894;2023-08-06T15:17:21;1.42;;;0.40;;
25988;SDS011;13778;48.236;9.894;2023-08-06T15:20:12;1.15;;;0.70;;
25988;SDS011;13778;48.236;9.894;2023-08-06T15:23:02;0.60;;;0.57;;
25988;SDS011;13778;48.236;9.894;2023-08-06T15:25:53;1.33;;;1.08;;
25988;SDS011;13778;48.236;9.894;2023-08-06T15:28:44;3.08;;;0.95;;
25988;SDS011;13778;48.236;9.894;2023-08-06T15:31:35;1.42;;;0.88;;
25988;SDS011;13778;48.236;9.894;2023-08-06T15:34:26;0.60;;;0.60;;
25988;SDS011;13778;48.236;9.894;2023-08-06T15:37:16;0.47;;;0.45;;
25988;SDS011;13778;48.236;9.894;2023-08-06T15:40:07;1.60;;;1.00;;
25988;SDS011;13778;48.236;9.894;2023-08-06T15:42:59;0.50;;;0.50;;
25988;SDS011;13778;48.236;9.894;2023-08-06T15:45:49;0.40;;;0.40;;
25988;SDS011;13778;48.236;9.894;2023-08-06T15:48:40;0.38;;;0.38;;
25988;SDS011;13778;48.236;9.894;2023-08-06T15:51:30;0.80;;;0.60;;
25988;SDS011;13778;48.236;9.894;2023-08-06T15:54:21;1.73;;;0.35;;
25988;SDS011;13778;48.236;9.894;2023-08-06T15:57:11;0.60;;;0.60;;
25988;SDS011;13778;48.236;9.894;2023-08-06T16:00:03;0.90;;;0.50;;
25988;SDS011;13778;48.236;9.894;2023-08-06T16:02:54;0.80;;;0.45;;
25988;SDS011;13778;48.236;9.894;2023-08-06T16:05:44;0.50;;;0.50;;
25988;SDS011;13778;48.236;9.894;2023-08-06T16:08:36;2.40;;;0.80;;
25988;SDS011;13778;48.236;9.894;2023-08-06T16:11:26;0.52;;;0.52;;
25988;SDS011;13778;48.236;9.894;2023-08-06T16:14:17;1.38;;;0.38;;
25988;SDS011;13778;48.236;9.894;2023-08-06T16:17:09;1.42;;;0.77;;
25988;SDS011;13778;48.236;9.894;2023-08-06T16:19:59;0.70;;;0.70;;
25988;SDS011;13778;48.236;9.894;2023-08-06T16:22:49;1.02;;;0.60;;
25988;SDS011;13778;48.236;9.894;2023-08-06T16:25:40;1.23;;;0.82;;
25988;SDS011;13778;48.236;9.894;2023-08-06T16:28:34;0.77;;;0.70;;
25988;SDS011;13778;48.236;9.894;2023-08-06T16:31:24;0.70;;;0.70;;
25988;SDS011;13778;48.236;9.894;2023-08-06T16:34:16;1.15;;;0.75;;
25988;SDS011;13778;48.236;9.894;2023-08-06T16:37:06;2.03;;;0.70;;
25988;SDS011;13778;48.236;9.894;2023-08-06T16:39:57;1.75;;;0.47;;
25988;SDS011;13778;48.236;9.894;2023-08-06T16:42:48;1.88;;;0.45;;
25988;SDS011;13778;48.236;9.894;2023-08-06T16:45:38;1.58;;;0.70;;
25988;SDS011;13778;48.236;9.894;2023-08-06T16:48:29;3.53;;;1.20;;
25988;SDS011;13778;48.236;9.894;2023-08-06T16:51:21;2.22;;;0.90;;
25988;SDS011;13778;48.236;9.894;2023-08-06T16:54:11;4.00;;;2.33;;
25988;SDS011;13778;48.236;9.894;2023-08-06T16:57:02;1.05;;;0.93;;
25988;SDS011;13778;48.236;9.894;2023-08-06T16:59:52;0.65;;;0.65;;
25988;SDS011;13778;48.236;9.894;2023-08-06T17:02:42;2.47;;;1.00;;
25988;SDS011;13778;48.236;9.894;2023-08-06T17:05:34;1.65;;;1.17;;
25988;SDS011;13778;48.236;9.894;2023-08-06T17:08:25;1.95;;;0.63;;
25988;SDS011;13778;48.236;9.894;2023-08-06T17:11:18;1.13;;;0.90;;
25988;SDS011;13778;48.236;9.894;2023-08-06T17:14:09;2.45;;;1.00;;
25988;SDS011;13778;48.236;9.894;2023-08-06T17:17:00;2.05;;;1.13;;
25988;SDS011;13778;48.236;9.894;2023-08-06T17:19:50;1.92;;;0.90;;
25988;SDS011;13778;48.236;9.894;2023-08-06T17:22:40;1.55;;;0.80;;
25988;SDS011;13778;48.236;9.894;2023-08-06T17:25:32;1.52;;;0.77;;
25988;SDS011;13778;48.236;9.894;2023-08-06T17:28:24;0.95;;;0.90;;
25988;SDS011;13778;48.236;9.894;2023-08-06T17:31:15;0.95;;;0.65;;
25988;SDS011;13778;48.236;9.894;2023-08-06T17:34:05;0.90;;;0.80;;
25988;SDS011;13778;48.236;9.894;2023-08-06T17:36:55;2.15;;;0.90;;
25988;SDS011;13778;48.236;9.894;2023-08-06T17:39:46;1.20;;;0.80;;
25988;SDS011;13778;48.236;9.894;2023-08-06T17:42:37;0.88;;;0.60;;
25988;SDS011;13778;48.236;9.894;2023-08-06T17:45:28;0.70;;;0.70;;
25988;SDS011;13778;48.236;9.894;2023-08-06T17:48:18;0.82;;;0.70;;
25988;SDS011;13778;48.236;9.894;2023-08-06T17:51:08;1.30;;;0.50;;
25988;SDS011;13778;48.236;9.894;2023-08-06T17:53:58;0.93;;;0.70;;
25988;SDS011;13778;48.236;9.894;2023-08-06T17:56:49;0.77;;;0.70;;